Benton, AR (72158)

4:13 PM CDT on September 01, 2015 (GMT -0500)
Benton Eastside | | Change Station
CLOSE
Current Station
Personal Weather Station
Location: Benton, AR
Elevation: 407 ft
Nearby Weather Stations

Elev 407 ft 34.57 °N, 92.56 °W | Updated 53 seconds ago

Partly Cloudy
Partly Cloudy
87.7 °F
Feels Like 94 °F
N
0.0
Wind Variable Wind from SSW
Gusts 0.0 mph

Today
High -- | Low -- °F
--% Chance of Precip.
Yesterday
High -- | Low -- °F
Precip. -- in
6:43 AM 7:36 PM
Waning Gibbous, 86% visible
Pressure 30.04 in
Visibility 10.0 miles
Clouds Mostly Cloudy 15000 ft
Mostly Cloudy 25000 ft
Heat Index 94 °F
Dew Point 73 °F
Humidity 58%
Rainfall 0.00 in
Snow Depth Not available.
UV 3 out of 12
Pollen 9.90 out of 12
Air Quality Not available.
Flu Activity Not available.
METAR KLIT 012053Z 16007KT 10SM BKN150 BKN250 33/17 A3004 RMK AO2 SLP171 T03280167 58016
Pressure 30.04 in
Visibility 10.0 miles
Clouds Mostly Cloudy 15000 ft
Mostly Cloudy 25000 ft
Heat Index 94 °F
Dew Point 73 °F
Humidity 58%
Rainfall 0.00 in
Snow Depth Not available.
UV 3 out of 12
Pollen 9.90 out of 12
Air Quality Not available.
Flu Activity Not available.
METAR KLIT 012053Z 16007KT 10SM BKN150 BKN250 33/17 A3004 RMK AO2 SLP171 T03280167 58016

10-Day Weather Forecast

×

Almanac

Astronomy

Sep. 01, 2015 Rise Set
Actual Time
Civil Twilight
Nautical Twilight
Astronomical Twilight
Moon
Length of Visible Light
Length of Day
Tomorrow will be .
, % of the Moon is Illuminated

Today's Extremes

State Highs State Lows

Community

WunderPhotos

Upload Photos

1,851,617 photos uploaded!

WunderBlogs® & News

Nearby

Air Quality

  Air Quality AQ Index Pollutant
Not available.

Snow Depth

Station Depth Elevation

Earthquake Activity

City Distance Mag. Time & Date
Minimum magnitude displayed is 2.5.

Coastal Water Temperatures

Place Temperature

Stations

Nearby Weather Stations

Station Location Temp. Windchill Dew Point Humidity Wind Precip. Elev Updated Type